sensor_id;sensor_type;location;lat;lon;timestamp;P1;durP1;ratioP1;P2;durP2;ratioP2
58472;SDS011;44775;51.564;5.460;2023-09-08T00:00:08;11.85;;;9.68;;
58472;SDS011;44775;51.564;5.460;2023-09-08T00:02:34;13.48;;;10.30;;
58472;SDS011;44775;51.564;5.460;2023-09-08T00:04:59;13.50;;;10.70;;
58472;SDS011;44775;51.564;5.460;2023-09-08T00:07:25;13.85;;;10.43;;
58472;SDS011;44775;51.564;5.460;2023-09-08T00:09:50;11.90;;;10.60;;
58472;SDS011;44775;51.564;5.460;2023-09-08T00:12:16;14.90;;;10.57;;
58472;SDS011;44775;51.564;5.460;2023-09-08T00:14:42;16.35;;;11.48;;
58472;SDS011;44775;51.564;5.460;2023-09-08T00:17:07;15.90;;;11.30;;
58472;SDS011;44775;51.564;5.460;2023-09-08T00:19:32;14.02;;;10.88;;
58472;SDS011;44775;51.564;5.460;2023-09-08T00:21:58;14.35;;;11.52;;
58472;SDS011;44775;51.564;5.460;2023-09-08T00:24:23;15.10;;;11.50;;
58472;SDS011;44775;51.564;5.460;2023-09-08T00:26:49;15.60;;;10.77;;
58472;SDS011;44775;51.564;5.460;2023-09-08T00:29:14;14.57;;;10.80;;
58472;SDS011;44775;51.564;5.460;2023-09-08T00:31:40;15.40;;;11.90;;
58472;SDS011;44775;51.564;5.460;2023-09-08T00:34:05;16.80;;;11.50;;
58472;SDS011;44775;51.564;5.460;2023-09-08T00:36:31;15.82;;;11.05;;
58472;SDS011;44775;51.564;5.460;2023-09-08T00:38:57;15.38;;;11.63;;
58472;SDS011;44775;51.564;5.460;2023-09-08T00:41:22;16.75;;;12.98;;
58472;SDS011;44775;51.564;5.460;2023-09-08T00:43:48;14.98;;;11.90;;
58472;SDS011;44775;51.564;5.460;2023-09-08T00:46:14;15.57;;;12.48;;
58472;SDS011;44775;51.564;5.460;2023-09-08T00:48:40;15.15;;;12.55;;
58472;SDS011;44775;51.564;5.460;2023-09-08T00:51:06;17.35;;;11.85;;
58472;SDS011;44775;51.564;5.460;2023-09-08T00:53:34;15.98;;;12.32;;
58472;SDS011;44775;51.564;5.460;2023-09-08T00:56:00;17.65;;;13.02;;
58472;SDS011;44775;51.564;5.460;2023-09-08T00:58:26;15.75;;;12.25;;
58472;SDS011;44775;51.564;5.460;2023-09-08T01:00:51;15.60;;;12.23;;
58472;SDS011;44775;51.564;5.460;2023-09-08T01:03:16;16.63;;;12.55;;
58472;SDS011;44775;51.564;5.460;2023-09-08T01:05:42;16.70;;;12.70;;
58472;SDS011;44775;51.564;5.460;2023-09-08T01:08:08;14.75;;;12.10;;
58472;SDS011;44775;51.564;5.460;2023-09-08T01:10:34;18.30;;;12.57;;
58472;SDS011;44775;51.564;5.460;2023-09-08T01:13:02;19.63;;;13.55;;
58472;SDS011;44775;51.564;5.460;2023-09-08T01:15:27;17.45;;;13.13;;
58472;SDS011;44775;51.564;5.460;2023-09-08T01:17:52;16.48;;;12.88;;
58472;SDS011;44775;51.564;5.460;2023-09-08T01:20:22;19.13;;;14.38;;
58472;SDS011;44775;51.564;5.460;2023-09-08T01:25:49;16.65;;;12.60;;
58472;SDS011;44775;51.564;5.460;2023-09-08T01:28:21;20.20;;;13.90;;
58472;SDS011;44775;51.564;5.460;2023-09-08T01:30:48;17.00;;;14.13;;
58472;SDS011;44775;51.564;5.460;2023-09-08T01:33:15;19.40;;;14.20;;
58472;SDS011;44775;51.564;5.460;2023-09-08T01:35:41;18.67;;;13.35;;
58472;SDS011;44775;51.564;5.460;2023-09-08T01:38:06;19.40;;;13.85;;
58472;SDS011;44775;51.564;5.460;2023-09-08T01:40:32;19.02;;;14.15;;
58472;SDS011;44775;51.564;5.460;2023-09-08T01:42:57;17.95;;;13.65;;
58472;SDS011;44775;51.564;5.460;2023-09-08T01:45:23;19.13;;;13.65;;
58472;SDS011;44775;51.564;5.460;2023-09-08T01:47:48;17.23;;;13.50;;
58472;SDS011;44775;51.564;5.460;2023-09-08T01:50:13;20.80;;;14.10;;
58472;SDS011;44775;51.564;5.460;2023-09-08T01:52:40;20.50;;;14.45;;
58472;SDS011;44775;51.564;5.460;2023-09-08T01:55:05;16.58;;;13.57;;
58472;SDS011;44775;51.564;5.460;2023-09-08T01:57:32;19.77;;;13.45;;
58472;SDS011;44775;51.564;5.460;2023-09-08T01:59:57;16.70;;;12.95;;
58472;SDS011;44775;51.564;5.460;2023-09-08T02:02:23;17.52;;;14.05;;
58472;SDS011;44775;51.564;5.460;2023-09-08T02:04:48;18.23;;;13.32;;
58472;SDS011;44775;51.564;5.460;2023-09-08T02:07:13;21.17;;;14.73;;
58472;SDS011;44775;51.564;5.460;2023-09-08T02:09:39;22.45;;;15.38;;
58472;SDS011;44775;51.564;5.460;2023-09-08T02:12:04;18.77;;;14.32;;
58472;SDS011;44775;51.564;5.460;2023-09-08T02:14:30;19.25;;;14.70;;
58472;SDS011;44775;51.564;5.460;2023-09-08T02:16:56;18.95;;;14.73;;
58472;SDS011;44775;51.564;5.460;2023-09-08T02:19:22;22.08;;;15.20;;
58472;SDS011;44775;51.564;5.460;2023-09-08T02:21:48;19.60;;;15.80;;
58472;SDS011;44775;51.564;5.460;2023-09-08T02:24:13;19.38;;;15.23;;
58472;SDS011;44775;51.564;5.460;2023-09-08T02:26:39;19.90;;;15.32;;
58472;SDS011;44775;51.564;5.460;2023-09-08T02:29:05;21.10;;;15.77;;
58472;SDS011;44775;51.564;5.460;2023-09-08T02:31:30;20.30;;;16.05;;
58472;SDS011;44775;51.564;5.460;2023-09-08T02:33:55;22.33;;;16.30;;
58472;SDS011;44775;51.564;5.460;2023-09-08T02:36:21;24.45;;;16.50;;
58472;SDS011;44775;51.564;5.460;2023-09-08T02:38:53;22.63;;;15.52;;
58472;SDS011;44775;51.564;5.460;2023-09-08T02:41:19;18.92;;;15.25;;
58472;SDS011;44775;51.564;5.460;2023-09-08T02:43:46;23.73;;;17.08;;
58472;SDS011;44775;51.564;5.460;2023-09-08T02:46:12;23.75;;;17.75;;
58472;SDS011;44775;51.564;5.460;2023-09-08T02:48:37;23.45;;;16.50;;
58472;SDS011;44775;51.564;5.460;2023-09-08T02:51:03;22.00;;;16.50;;
58472;SDS011;44775;51.564;5.460;2023-09-08T02:53:28;23.88;;;15.88;;
58472;SDS011;44775;51.564;5.460;2023-09-08T02:55:57;19.88;;;16.30;;
58472;SDS011;44775;51.564;5.460;2023-09-08T02:58:23;22.85;;;17.42;;
58472;SDS011;44775;51.564;5.460;2023-09-08T03:00:48;20.80;;;17.17;;
58472;SDS011;44775;51.564;5.460;2023-09-08T03:03:14;21.20;;;17.05;;
58472;SDS011;44775;51.564;5.460;2023-09-08T03:05:39;22.23;;;16.83;;
58472;SDS011;44775;51.564;5.460;2023-09-08T03:08:05;20.83;;;16.77;;
58472;SDS011;44775;51.564;5.460;2023-09-08T03:10:30;23.45;;;17.20;;
58472;SDS011;44775;51.564;5.460;2023-09-08T03:12:59;25.58;;;17.63;;
58472;SDS011;44775;51.564;5.460;2023-09-08T03:15:25;23.73;;;18.15;;
58472;SDS011;44775;51.564;5.460;2023-09-08T03:17:53;24.05;;;18.48;;
58472;SDS011;44775;51.564;5.460;2023-09-08T03:20:23;21.40;;;17.77;;
58472;SDS011;44775;51.564;5.460;2023-09-08T03:22:49;23.42;;;17.98;;
58472;SDS011;44775;51.564;5.460;2023-09-08T03:25:14;27.38;;;19.02;;
58472;SDS011;44775;51.564;5.460;2023-09-08T03:27:40;24.55;;;19.67;;
58472;SDS011;44775;51.564;5.460;2023-09-08T03:30:05;26.17;;;18.52;;
58472;SDS011;44775;51.564;5.460;2023-09-08T03:32:31;26.63;;;19.50;;
58472;SDS011;44775;51.564;5.460;2023-09-08T03:34:57;24.45;;;19.73;;
58472;SDS011;44775;51.564;5.460;2023-09-08T03:37:22;25.20;;;20.33;;
58472;SDS011;44775;51.564;5.460;2023-09-08T03:39:47;26.38;;;20.77;;
58472;SDS011;44775;51.564;5.460;2023-09-08T03:42:13;26.90;;;19.73;;
58472;SDS011;44775;51.564;5.460;2023-09-08T03:44:38;24.67;;;18.90;;
58472;SDS011;44775;51.564;5.460;2023-09-08T03:47:03;28.63;;;20.25;;
58472;SDS011;44775;51.564;5.460;2023-09-08T03:49:30;26.20;;;20.40;;
58472;SDS011;44775;51.564;5.460;2023-09-08T03:51:55;23.98;;;20.13;;
58472;SDS011;44775;51.564;5.460;2023-09-08T03:54:21;29.90;;;20.35;;
58472;SDS011;44775;51.564;5.460;2023-09-08T03:56:46;27.92;;;21.02;;
58472;SDS011;44775;51.564;5.460;2023-09-08T03:59:11;26.38;;;20.08;;
58472;SDS011;44775;51.564;5.460;2023-09-08T04:01:36;27.02;;;20.85;;
58472;SDS011;44775;51.564;5.460;2023-09-08T04:04:02;30.83;;;21.67;;
58472;SDS011;44775;51.564;5.460;2023-09-08T04:06:27;28.08;;;20.85;;
58472;SDS011;44775;51.564;5.460;2023-09-08T04:08:53;28.75;;;20.23;;
58472;SDS011;44775;51.564;5.460;2023-09-08T04:11:18;28.42;;;20.30;;
58472;SDS011;44775;51.564;5.460;2023-09-08T04:13:44;24.33;;;19.48;;
58472;SDS011;44775;51.564;5.460;2023-09-08T04:16:09;25.40;;;20.38;;
58472;SDS011;44775;51.564;5.460;2023-09-08T04:18:35;26.27;;;19.83;;
58472;SDS011;44775;51.564;5.460;2023-09-08T04:21:00;25.60;;;20.55;;
58472;SDS011;44775;51.564;5.460;2023-09-08T04:23:25;27.58;;;20.20;;
58472;SDS011;44775;51.564;5.460;2023-09-08T04:25:51;27.92;;;19.60;;
58472;SDS011;44775;51.564;5.460;2023-09-08T04:28:16;27.75;;;20.10;;
58472;SDS011;44775;51.564;5.460;2023-09-08T04:30:41;28.88;;;21.10;;
58472;SDS011;44775;51.564;5.460;2023-09-08T04:33:07;27.45;;;20.42;;
58472;SDS011;44775;51.564;5.460;2023-09-08T04:35:32;28.73;;;19.95;;
58472;SDS011;44775;51.564;5.460;2023-09-08T04:37:57;24.73;;;19.50;;
58472;SDS011;44775;51.564;5.460;2023-09-08T04:40:22;30.42;;;20.35;;
58472;SDS011;44775;51.564;5.460;2023-09-08T04:42:48;28.80;;;19.95;;
58472;SDS011;44775;51.564;5.460;2023-09-08T04:45:13;24.40;;;20.02;;
58472;SDS011;44775;51.564;5.460;2023-09-08T04:47:39;35.75;;;20.83;;
58472;SDS011;44775;51.564;5.460;2023-09-08T04:50:04;24.38;;;19.55;;
58472;SDS011;44775;51.564;5.460;2023-09-08T04:52:30;24.88;;;19.65;;
58472;SDS011;44775;51.564;5.460;2023-09-08T04:54:55;27.67;;;19.58;;
58472;SDS011;44775;51.564;5.460;2023-09-08T04:57:20;28.77;;;20.20;;
58472;SDS011;44775;51.564;5.460;2023-09-08T04:59:46;30.80;;;20.33;;
58472;SDS011;44775;51.564;5.460;2023-09-08T05:02:11;27.05;;;19.73;;
58472;SDS011;44775;51.564;5.460;2023-09-08T05:04:36;30.15;;;19.95;;
58472;SDS011;44775;51.564;5.460;2023-09-08T05:07:02;29.92;;;20.30;;
58472;SDS011;44775;51.564;5.460;2023-09-08T05:09:27;28.00;;;19.65;;
58472;SDS011;44775;51.564;5.460;2023-09-08T05:11:52;31.27;;;21.10;;
58472;SDS011;44775;51.564;5.460;2023-09-08T05:14:18;27.90;;;20.60;;
58472;SDS011;44775;51.564;5.460;2023-09-08T05:16:43;27.50;;;20.55;;
58472;SDS011;44775;51.564;5.460;2023-09-08T05:19:13;30.55;;;21.30;;
58472;SDS011;44775;51.564;5.460;2023-09-08T05:21:39;27.45;;;20.00;;
58472;SDS011;44775;51.564;5.460;2023-09-08T05:24:05;26.48;;;19.73;;
58472;SDS011;44775;51.564;5.460;2023-09-08T05:26:31;26.65;;;19.55;;
58472;SDS011;44775;51.564;5.460;2023-09-08T05:28:56;26.75;;;20.10;;
58472;SDS011;44775;51.564;5.460;2023-09-08T05:31:21;25.60;;;19.20;;
58472;SDS011;44775;51.564;5.460;2023-09-08T05:33:47;24.05;;;19.63;;
58472;SDS011;44775;51.564;5.460;2023-09-08T05:36:12;26.35;;;20.10;;
58472;SDS011;44775;51.564;5.460;2023-09-08T05:38:38;28.25;;;20.10;;
58472;SDS011;44775;51.564;5.460;2023-09-08T05:41:03;25.08;;;19.92;;
58472;SDS011;44775;51.564;5.460;2023-09-08T05:43:28;26.48;;;19.67;;
58472;SDS011;44775;51.564;5.460;2023-09-08T05:45:53;27.10;;;19.65;;
58472;SDS011;44775;51.564;5.460;2023-09-08T05:48:19;24.27;;;19.27;;
58472;SDS011;44775;51.564;5.460;2023-09-08T05:50:44;28.83;;;20.55;;
58472;SDS011;44775;51.564;5.460;2023-09-08T05:53:10;26.20;;;20.42;;
58472;SDS011;44775;51.564;5.460;2023-09-08T05:55:35;27.25;;;19.80;;
58472;SDS011;44775;51.564;5.460;2023-09-08T05:58:00;28.25;;;20.48;;
58472;SDS011;44775;51.564;5.460;2023-09-08T06:00:26;27.42;;;19.85;;
58472;SDS011;44775;51.564;5.460;2023-09-08T06:02:51;26.90;;;19.55;;
58472;SDS011;44775;51.564;5.460;2023-09-08T06:05:17;26.90;;;20.73;;
58472;SDS011;44775;51.564;5.460;2023-09-08T06:07:42;24.40;;;18.45;;
58472;SDS011;44775;51.564;5.460;2023-09-08T06:10:08;25.40;;;19.88;;
58472;SDS011;44775;51.564;5.460;2023-09-08T06:12:34;23.88;;;19.98;;
58472;SDS011;44775;51.564;5.460;2023-09-08T06:14:59;23.58;;;19.40;;
58472;SDS011;44775;51.564;5.460;2023-09-08T06:17:24;23.35;;;18.13;;
58472;SDS011;44775;51.564;5.460;2023-09-08T06:19:50;24.40;;;18.67;;
58472;SDS011;44775;51.564;5.460;2023-09-08T06:22:15;24.27;;;19.70;;
58472;SDS011;44775;51.564;5.460;2023-09-08T06:24:41;26.85;;;18.13;;
58472;SDS011;44775;51.564;5.460;2023-09-08T06:27:07;21.25;;;18.88;;
58472;SDS011;44775;51.564;5.460;2023-09-08T06:29:33;25.20;;;18.83;;
58472;SDS011;44775;51.564;5.460;2023-09-08T06:31:58;21.05;;;18.70;;
58472;SDS011;44775;51.564;5.460;2023-09-08T06:34:23;22.55;;;19.42;;
58472;SDS011;44775;51.564;5.460;2023-09-08T06:36:49;27.83;;;20.98;;
58472;SDS011;44775;51.564;5.460;2023-09-08T06:39:14;25.65;;;21.08;;
58472;SDS011;44775;51.564;5.460;2023-09-08T06:41:39;24.73;;;21.40;;
58472;SDS011;44775;51.564;5.460;2023-09-08T06:44:05;28.67;;;20.08;;
58472;SDS011;44775;51.564;5.460;2023-09-08T06:46:30;27.48;;;21.75;;
58472;SDS011;44775;51.564;5.460;2023-09-08T06:48:56;27.42;;;20.73;;
58472;SDS011;44775;51.564;5.460;2023-09-08T06:51:21;23.85;;;19.70;;
58472;SDS011;44775;51.564;5.460;2023-09-08T06:53:53;26.35;;;21.13;;
58472;SDS011;44775;51.564;5.460;2023-09-08T06:56:22;26.05;;;20.33;;
58472;SDS011;44775;51.564;5.460;2023-09-08T06:58:48;27.00;;;19.85;;
58472;SDS011;44775;51.564;5.460;2023-09-08T07:01:14;18.30;;;16.17;;
58472;SDS011;44775;51.564;5.460;2023-09-08T07:03:39;24.55;;;19.77;;
58472;SDS011;44775;51.564;5.460;2023-09-08T07:06:04;21.50;;;18.15;;
58472;SDS011;44775;51.564;5.460;2023-09-08T07:08:30;21.83;;;18.13;;
58472;SDS011;44775;51.564;5.460;2023-09-08T07:10:55;16.73;;;13.90;;
58472;SDS011;44775;51.564;5.460;2023-09-08T07:13:20;16.77;;;14.98;;
58472;SDS011;44775;51.564;5.460;2023-09-08T07:15:46;20.50;;;17.33;;
58472;SDS011;44775;51.564;5.460;2023-09-08T07:18:11;10.15;;;9.15;;
58472;SDS011;44775;51.564;5.460;2023-09-08T07:20:36;22.55;;;18.52;;
58472;SDS011;44775;51.564;5.460;2023-09-08T07:23:02;15.60;;;12.85;;
58472;SDS011;44775;51.564;5.460;2023-09-08T07:25:27;7.55;;;6.85;;
58472;SDS011;44775;51.564;5.460;2023-09-08T07:27:52;21.83;;;16.77;;
58472;SDS011;44775;51.564;5.460;2023-09-08T07:30:19;15.40;;;13.80;;
58472;SDS011;44775;51.564;5.460;2023-09-08T07:32:44;3.60;;;3.30;;
58472;SDS011;44775;51.564;5.460;2023-09-08T07:35:10;12.02;;;9.50;;
58472;SDS011;44775;51.564;5.460;2023-09-08T07:37:39;16.05;;;14.32;;
58472;SDS011;44775;51.564;5.460;2023-09-08T07:40:05;6.65;;;5.78;;
58472;SDS011;44775;51.564;5.460;2023-09-08T07:42:31;4.10;;;3.80;;
58472;SDS011;44775;51.564;5.460;2023-09-08T07:44:56;12.10;;;10.90;;
58472;SDS011;44775;51.564;5.460;2023-09-08T07:47:22;5.05;;;4.60;;
58472;SDS011;44775;51.564;5.460;2023-09-08T07:49:47;15.48;;;11.70;;
58472;SDS011;44775;51.564;5.460;2023-09-08T07:52:13;8.43;;;7.55;;
58472;SDS011;44775;51.564;5.460;2023-09-08T07:54:38;4.28;;;3.88;;
58472;SDS011;44775;51.564;5.460;2023-09-08T07:57:04;3.72;;;3.33;;
58472;SDS011;44775;51.564;5.460;2023-09-08T07:59:29;8.05;;;6.35;;
58472;SDS011;44775;51.564;5.460;2023-09-08T08:01:54;18.35;;;13.93;;
58472;SDS011;44775;51.564;5.460;2023-09-08T08:04:20;20.48;;;15.20;;
58472;SDS011;44775;51.564;5.460;2023-09-08T08:06:45;8.93;;;8.02;;
58472;SDS011;44775;51.564;5.460;2023-09-08T08:09:12;9.13;;;8.25;;
58472;SDS011;44775;51.564;5.460;2023-09-08T08:11:37;19.10;;;14.13;;
58472;SDS011;44775;51.564;5.460;2023-09-08T08:14:03;16.55;;;13.43;;
58472;SDS011;44775;51.564;5.460;2023-09-08T08:16:28;13.55;;;11.85;;
58472;SDS011;44775;51.564;5.460;2023-09-08T08:18:53;17.77;;;13.68;;
58472;SDS011;44775;51.564;5.460;2023-09-08T08:21:19;15.40;;;13.80;;
58472;SDS011;44775;51.564;5.460;2023-09-08T08:23:44;15.10;;;13.07;;
58472;SDS011;44775;51.564;5.460;2023-09-08T08:26:09;15.05;;;12.70;;
58472;SDS011;44775;51.564;5.460;2023-09-08T08:28:35;14.45;;;11.82;;
58472;SDS011;44775;51.564;5.460;2023-09-08T08:31:00;14.43;;;12.40;;
58472;SDS011;44775;51.564;5.460;2023-09-08T08:33:26;18.67;;;13.20;;
58472;SDS011;44775;51.564;5.460;2023-09-08T08:35:52;14.02;;;12.50;;
58472;SDS011;44775;51.564;5.460;2023-09-08T08:38:18;15.18;;;11.23;;
58472;SDS011;44775;51.564;5.460;2023-09-08T08:40:44;13.98;;;11.60;;
58472;SDS011;44775;51.564;5.460;2023-09-08T08:43:09;7.72;;;6.93;;
58472;SDS011;44775;51.564;5.460;2023-09-08T08:45:35;14.43;;;12.05;;
58472;SDS011;44775;51.564;5.460;2023-09-08T08:48:05;16.48;;;12.10;;
58472;SDS011;44775;51.564;5.460;2023-09-08T08:50:33;14.45;;;11.30;;
58472;SDS011;44775;51.564;5.460;2023-09-08T08:53:01;14.60;;;10.82;;
58472;SDS011;44775;51.564;5.460;2023-09-08T08:55:27;11.55;;;8.75;;
58472;SDS011;44775;51.564;5.460;2023-09-08T08:57:55;16.08;;;10.40;;
58472;SDS011;44775;51.564;5.460;2023-09-08T09:00:27;18.15;;;10.95;;
58472;SDS011;44775;51.564;5.460;2023-09-08T09:02:54;11.88;;;7.95;;
58472;SDS011;44775;51.564;5.460;2023-09-08T09:05:20;11.43;;;8.43;;
58472;SDS011;44775;51.564;5.460;2023-09-08T09:07:46;10.65;;;7.63;;
58472;SDS011;44775;51.564;5.460;2023-09-08T09:10:13;6.47;;;5.82;;
58472;SDS011;44775;51.564;5.460;2023-09-08T09:12:39;5.40;;;4.88;;
58472;SDS011;44775;51.564;5.460;2023-09-08T09:15:04;12.85;;;8.63;;
58472;SDS011;44775;51.564;5.460;2023-09-08T09:17:33;11.32;;;7.80;;
58472;SDS011;44775;51.564;5.460;2023-09-08T09:20:12;9.57;;;7.38;;
58472;SDS011;44775;51.564;5.460;2023-09-08T09:22:42;11.68;;;7.25;;
58472;SDS011;44775;51.564;5.460;2023-09-08T09:25:08;6.00;;;5.40;;
58472;SDS011;44775;51.564;5.460;2023-09-08T09:27:35;9.23;;;6.82;;
58472;SDS011;44775;51.564;5.460;2023-09-08T09:30:02;4.53;;;4.13;;
58472;SDS011;44775;51.564;5.460;2023-09-08T09:32:28;5.68;;;4.00;;
58472;SDS011;44775;51.564;5.460;2023-09-08T09:34:56;10.50;;;7.00;;
58472;SDS011;44775;51.564;5.460;2023-09-08T09:37:22;8.60;;;6.55;;
58472;SDS011;44775;51.564;5.460;2023-09-08T09:39:52;4.18;;;3.65;;
58472;SDS011;44775;51.564;5.460;2023-09-08T09:42:18;11.82;;;8.88;;
58472;SDS011;44775;51.564;5.460;2023-09-08T09:44:44;12.45;;;9.40;;
58472;SDS011;44775;51.564;5.460;2023-09-08T09:47:12;9.88;;;8.88;;
58472;SDS011;44775;51.564;5.460;2023-09-08T09:49:45;5.72;;;5.15;;
58472;SDS011;44775;51.564;5.460;2023-09-08T09:52:12;10.30;;;8.30;;
58472;SDS011;44775;51.564;5.460;2023-09-08T09:54:40;10.73;;;7.83;;
58472;SDS011;44775;51.564;5.460;2023-09-08T09:57:07;9.88;;;8.75;;
58472;SDS011;44775;51.564;5.460;2023-09-08T09:59:37;8.68;;;6.95;;
58472;SDS011;44775;51.564;5.460;2023-09-08T10:02:04;9.63;;;6.20;;
58472;SDS011;44775;51.564;5.460;2023-09-08T10:04:29;7.78;;;6.40;;
58472;SDS011;44775;51.564;5.460;2023-09-08T10:06:55;4.78;;;4.25;;
58472;SDS011;44775;51.564;5.460;2023-09-08T10:09:23;4.78;;;4.00;;
58472;SDS011;44775;51.564;5.460;2023-09-08T10:11:49;3.72;;;3.15;;
58472;SDS011;44775;51.564;5.460;2023-09-08T10:14:15;7.22;;;5.60;;
58472;SDS011;44775;51.564;5.460;2023-09-08T10:16:43;3.60;;;3.30;;
58472;SDS011;44775;51.564;5.460;2023-09-08T10:19:14;7.85;;;5.28;;
58472;SDS011;44775;51.564;5.460;2023-09-08T10:21:41;6.10;;;5.47;;
58472;SDS011;44775;51.564;5.460;2023-09-08T10:26:46;6.53;;;5.43;;
58472;SDS011;44775;51.564;5.460;2023-09-08T10:29:16;6.25;;;5.47;;
58472;SDS011;44775;51.564;5.460;2023-09-08T10:31:44;5.05;;;3.17;;
58472;SDS011;44775;51.564;5.460;2023-09-08T10:34:09;5.10;;;4.50;;
58472;SDS011;44775;51.564;5.460;2023-09-08T10:36:35;10.25;;;5.93;;
58472;SDS011;44775;51.564;5.460;2023-09-08T10:47:18;4.90;;;3.90;;
58472;SDS011;44775;51.564;5.460;2023-09-08T10:49:45;3.70;;;3.17;;
58472;SDS011;44775;51.564;5.460;2023-09-08T10:52:11;5.55;;;4.90;;
58472;SDS011;44775;51.564;5.460;2023-09-08T10:54:44;4.60;;;3.60;;
58472;SDS011;44775;51.564;5.460;2023-09-08T10:57:30;9.77;;;6.00;;
58472;SDS011;44775;51.564;5.460;2023-09-08T10:59:59;7.20;;;4.88;;
58472;SDS011;44775;51.564;5.460;2023-09-08T11:02:49;3.38;;;3.08;;
58472;SDS011;44775;51.564;5.460;2023-09-08T11:05:19;6.40;;;4.68;;
58472;SDS011;44775;51.564;5.460;2023-09-08T11:07:45;3.70;;;3.35;;
58472;SDS011;44775;51.564;5.460;2023-09-08T11:10:11;4.30;;;3.95;;
58472;SDS011;44775;51.564;5.460;2023-09-08T11:12:38;7.33;;;4.20;;
58472;SDS011;44775;51.564;5.460;2023-09-08T11:15:04;7.70;;;5.75;;
58472;SDS011;44775;51.564;5.460;2023-09-08T11:17:32;6.10;;;4.03;;
58472;SDS011;44775;51.564;5.460;2023-09-08T11:19:59;9.30;;;5.90;;
58472;SDS011;44775;51.564;5.460;2023-09-08T11:22:25;4.95;;;3.70;;
58472;SDS011;44775;51.564;5.460;2023-09-08T11:24:52;8.48;;;5.28;;
58472;SDS011;44775;51.564;5.460;2023-09-08T11:27:22;7.25;;;5.57;;
58472;SDS011;44775;51.564;5.460;2023-09-08T11:29:48;5.60;;;4.25;;
58472;SDS011;44775;51.564;5.460;2023-09-08T11:32:14;3.25;;;3.00;;
58472;SDS011;44775;51.564;5.460;2023-09-08T11:34:39;8.05;;;5.55;;
58472;SDS011;44775;51.564;5.460;2023-09-08T11:37:10;11.13;;;5.45;;
58472;SDS011;44775;51.564;5.460;2023-09-08T11:39:41;4.20;;;3.80;;
58472;SDS011;44775;51.564;5.460;2023-09-08T11:42:07;5.68;;;3.58;;
58472;SDS011;44775;51.564;5.460;2023-09-08T11:44:34;6.53;;;4.93;;
58472;SDS011;44775;51.564;5.460;2023-09-08T11:47:01;2.97;;;2.50;;
58472;SDS011;44775;51.564;5.460;2023-09-08T11:51:58;6.07;;;4.00;;
58472;SDS011;44775;51.564;5.460;2023-09-08T11:54:24;5.88;;;4.75;;
58472;SDS011;44775;51.564;5.460;2023-09-08T11:56:49;6.70;;;4.68;;
58472;SDS011;44775;51.564;5.460;2023-09-08T11:59:15;4.20;;;3.70;;
58472;SDS011;44775;51.564;5.460;2023-09-08T12:01:41;4.28;;;3.88;;
58472;SDS011;44775;51.564;5.460;2023-09-08T12:04:06;7.72;;;4.88;;
58472;SDS011;44775;51.564;5.460;2023-09-08T12:06:31;7.25;;;4.63;;
58472;SDS011;44775;51.564;5.460;2023-09-08T12:09:00;4.07;;;3.33;;
58472;SDS011;44775;51.564;5.460;2023-09-08T12:11:36;5.40;;;3.28;;
58472;SDS011;44775;51.564;5.460;2023-09-08T12:14:06;4.25;;;3.63;;
58472;SDS011;44775;51.564;5.460;2023-09-08T12:16:34;4.55;;;3.55;;
58472;SDS011;44775;51.564;5.460;2023-09-08T12:19:00;3.30;;;2.90;;
58472;SDS011;44775;51.564;5.460;2023-09-08T12:21:25;6.35;;;4.30;;
58472;SDS011;44775;51.564;5.460;2023-09-08T12:23:52;6.00;;;3.97;;
58472;SDS011;44775;51.564;5.460;2023-09-08T12:28:44;6.68;;;3.58;;
58472;SDS011;44775;51.564;5.460;2023-09-08T12:31:10;6.80;;;3.72;;
58472;SDS011;44775;51.564;5.460;2023-09-08T12:33:38;4.40;;;3.03;;
58472;SDS011;44775;51.564;5.460;2023-09-08T12:36:10;5.60;;;4.45;;
58472;SDS011;44775;51.564;5.460;2023-09-08T12:38:40;3.80;;;3.45;;
58472;SDS011;44775;51.564;5.460;2023-09-08T12:41:05;4.05;;;3.28;;
58472;SDS011;44775;51.564;5.460;2023-09-08T12:43:30;8.02;;;4.25;;
58472;SDS011;44775;51.564;5.460;2023-09-08T12:45:56;4.72;;;3.28;;
58472;SDS011;44775;51.564;5.460;2023-09-08T12:48:21;3.30;;;3.00;;
58472;SDS011;44775;51.564;5.460;2023-09-08T12:50:47;4.35;;;3.38;;
58472;SDS011;44775;51.564;5.460;2023-09-08T12:53:13;4.68;;;3.80;;
58472;SDS011;44775;51.564;5.460;2023-09-08T12:55:39;3.67;;;2.55;;
58472;SDS011;44775;51.564;5.460;2023-09-08T12:58:04;4.78;;;2.80;;
58472;SDS011;44775;51.564;5.460;2023-09-08T13:00:29;5.90;;;4.07;;
58472;SDS011;44775;51.564;5.460;2023-09-08T13:02:55;4.50;;;3.65;;
58472;SDS011;44775;51.564;5.460;2023-09-08T13:05:20;4.75;;;4.00;;
58472;SDS011;44775;51.564;5.460;2023-09-08T13:07:45;8.77;;;4.05;;
58472;SDS011;44775;51.564;5.460;2023-09-08T13:10:11;3.55;;;3.25;;
58472;SDS011;44775;51.564;5.460;2023-09-08T13:12:36;5.97;;;4.38;;
58472;SDS011;44775;51.564;5.460;2023-09-08T13:15:02;4.82;;;4.05;;
58472;SDS011;44775;51.564;5.460;2023-09-08T13:17:27;7.18;;;3.80;;
58472;SDS011;44775;51.564;5.460;2023-09-08T13:19:53;6.67;;;4.10;;
58472;SDS011;44775;51.564;5.460;2023-09-08T13:22:19;5.73;;;3.90;;
58472;SDS011;44775;51.564;5.460;2023-09-08T13:24:45;7.93;;;3.85;;
58472;SDS011;44775;51.564;5.460;2023-09-08T13:27:10;3.63;;;3.28;;
58472;SDS011;44775;51.564;5.460;2023-09-08T13:29:36;4.05;;;3.50;;
58472;SDS011;44775;51.564;5.460;2023-09-08T13:32:03;5.18;;;3.92;;
58472;SDS011;44775;51.564;5.460;2023-09-08T13:34:29;5.57;;;3.80;;
58472;SDS011;44775;51.564;5.460;2023-09-08T13:36:54;4.70;;;3.90;;
58472;SDS011;44775;51.564;5.460;2023-09-08T13:39:19;6.77;;;4.40;;
58472;SDS011;44775;51.564;5.460;2023-09-08T13:44:14;8.00;;;4.32;;
58472;SDS011;44775;51.564;5.460;2023-09-08T13:46:40;6.72;;;4.30;;
58472;SDS011;44775;51.564;5.460;2023-09-08T13:49:05;6.67;;;4.10;;
58472;SDS011;44775;51.564;5.460;2023-09-08T13:51:31;5.30;;;4.20;;
58472;SDS011;44775;51.564;5.460;2023-09-08T13:53:57;8.82;;;4.40;;
58472;SDS011;44775;51.564;5.460;2023-09-08T13:56:22;8.00;;;4.50;;
58472;SDS011;44775;51.564;5.460;2023-09-08T13:58:48;7.17;;;4.30;;
58472;SDS011;44775;51.564;5.460;2023-09-08T14:01:13;6.87;;;4.43;;
58472;SDS011;44775;51.564;5.460;2023-09-08T14:03:38;7.93;;;4.70;;
58472;SDS011;44775;51.564;5.460;2023-09-08T14:06:04;6.03;;;4.25;;
58472;SDS011;44775;51.564;5.460;2023-09-08T14:08:29;8.50;;;4.70;;
58472;SDS011;44775;51.564;5.460;2023-09-08T14:10:55;7.43;;;4.28;;
58472;SDS011;44775;51.564;5.460;2023-09-08T14:13:20;5.63;;;4.55;;
58472;SDS011;44775;51.564;5.460;2023-09-08T14:15:45;9.13;;;4.30;;
58472;SDS011;44775;51.564;5.460;2023-09-08T14:18:11;7.80;;;4.65;;
58472;SDS011;44775;51.564;5.460;2023-09-08T14:20:36;7.22;;;4.32;;
58472;SDS011;44775;51.564;5.460;2023-09-08T14:23:02;9.23;;;4.85;;
58472;SDS011;44775;51.564;5.460;2023-09-08T14:25:27;10.52;;;5.28;;
58472;SDS011;44775;51.564;5.460;2023-09-08T14:27:53;7.38;;;4.38;;
58472;SDS011;44775;51.564;5.460;2023-09-08T14:30:18;10.65;;;4.53;;
58472;SDS011;44775;51.564;5.460;2023-09-08T14:32:43;6.50;;;4.47;;
58472;SDS011;44775;51.564;5.460;2023-09-08T14:35:09;7.35;;;4.40;;
58472;SDS011;44775;51.564;5.460;2023-09-08T14:37:34;6.07;;;4.70;;
58472;SDS011;44775;51.564;5.460;2023-09-08T14:40:00;6.32;;;4.05;;
58472;SDS011;44775;51.564;5.460;2023-09-08T14:42:25;6.82;;;4.60;;
58472;SDS011;44775;51.564;5.460;2023-09-08T14:44:50;9.23;;;5.00;;